Time;durP1;ratioP1;P1;durP2;ratioP2;P2;SDS_P1;SDS_P2;PMS_P1;PMS_P2;Temp;Humidity;BMP_temperature;BMP_pressure;BME280_temperature;BME280_humidity;BME280_pressure;Samples;Min_cycle;Max_cycle;Signal;HPM_P1;HPM_P2
2023/09/30 00:03:05;;;;;;;3.40;2.05;;;19.70;74.80;;;;;;10489358;28;20036;-56
2023/09/30 00:08:06;;;;;;;3.97;2.00;;;19.70;74.80;;;;;;10489791;28;20035;-56
2023/09/30 00:13:07;;;;;;;4.35;2.22;;;19.70;74.80;;;;;;10489546;28;20479;-55
2023/09/30 00:18:09;;;;;;;4.15;2.22;;;19.70;74.80;;;;;;10488102;28;20044;-56
2023/09/30 00:23:10;;;;;;;3.90;2.72;;;19.70;74.80;;;;;;10488967;28;20024;-56
2023/09/30 00:28:10;;;;;;;4.15;2.25;;;19.70;74.70;;;;;;10489117;28;20040;-55
2023/09/30 00:33:11;;;;;;;3.53;2.00;;;19.60;74.80;;;;;;10488315;28;20029;-56
2023/09/30 00:38:12;;;;;;;4.25;2.40;;;19.60;74.80;;;;;;10488810;28;20483;-56
2023/09/30 00:43:19;;;;;;;4.05;2.30;;;19.60;74.70;;;;;;10488105;28;20460;-56
2023/09/30 00:48:20;;;;;;;3.15;2.00;;;19.60;74.60;;;;;;10488694;28;20032;-57
2023/09/30 00:53:20;;;;;;;5.30;2.85;;;19.60;74.60;;;;;;10488671;28;20051;-56
2023/09/30 00:58:25;;;;;;;3.97;2.45;;;19.60;74.60;;;;;;10488458;28;20035;-56
2023/09/30 01:03:26;;;;;;;4.75;3.30;;;19.60;74.60;;;;;;10487086;28;20051;-56
2023/09/30 01:08:27;;;;;;;3.97;2.60;;;19.60;74.60;;;;;;10488200;28;20040;-56
2023/09/30 01:13:35;;;;;;;4.35;2.55;;;19.60;74.70;;;;;;10487572;28;20417;-56
2023/09/30 01:18:38;;;;;;;3.33;2.47;;;19.60;74.70;;;;;;10487997;28;20440;-56
2023/09/30 01:23:39;;;;;;;4.30;2.85;;;19.60;74.60;;;;;;10487918;28;20017;-56
2023/09/30 01:28:40;;;;;;;5.40;2.55;;;19.60;74.60;;;;;;10488225;28;20177;-56
2023/09/30 01:33:42;;;;;;;4.90;2.60;;;19.60;74.50;;;;;;10487720;28;20530;-57
2023/09/30 01:38:43;;;;;;;3.28;2.25;;;19.60;74.50;;;;;;10488230;28;20027;-57
2023/09/30 01:43:44;;;;;;;5.38;2.15;;;19.60;74.50;;;;;;10489997;28;20035;-56
2023/09/30 01:48:44;;;;;;;6.15;2.20;;;19.60;74.50;;;;;;10495928;28;20024;-57
2023/09/30 01:53:45;;;;;;;6.38;2.75;;;19.60;74.40;;;;;;10494595;28;20043;-56
2023/09/30 01:58:46;;;;;;;3.85;2.60;;;19.50;74.30;;;;;;10495287;28;20033;-56
2023/09/30 02:03:46;;;;;;;5.25;2.65;;;19.50;74.40;;;;;;10494882;28;20032;-57
2023/09/30 02:08:47;;;;;;;5.60;2.38;;;19.50;74.50;;;;;;10494410;28;20024;-57
2023/09/30 02:13:48;;;;;;;3.60;2.13;;;19.50;74.50;;;;;;10494057;28;20570;-56
2023/09/30 02:18:50;;;;;;;3.92;2.40;;;19.50;75.10;;;;;;10494000;28;20052;-56
2023/09/30 02:23:54;;;;;;;4.15;2.13;;;19.50;74.50;;;;;;10493569;28;20036;-55
2023/09/30 02:28:56;;;;;;;6.10;2.65;;;19.50;74.50;;;;;;10494187;28;20037;-57
2023/09/30 02:33:57;;;;;;;4.15;2.40;;;19.50;74.50;;;;;;10493644;28;20033;-56
2023/09/30 02:38:58;;;;;;;3.67;2.53;;;19.50;74.50;;;;;;10493816;28;20033;-56
2023/09/30 02:43:58;;;;;;;7.25;2.55;;;19.50;74.50;;;;;;10493197;28;20032;-56
2023/09/30 02:49:02;;;;;;;3.72;2.17;;;19.50;74.60;;;;;;10493027;28;20036;-57
2023/09/30 02:54:04;;;;;;;4.47;2.45;;;19.50;74.60;;;;;;10491653;28;20531;-56
2023/09/30 02:59:07;;;;;;;5.03;2.40;;;19.50;74.70;;;;;;10492321;28;20368;-56
2023/09/30 03:04:09;;;;;;;5.75;2.33;;;19.50;74.80;;;;;;10492310;28;20262;-56
2023/09/30 03:09:12;;;;;;;5.35;2.78;;;19.50;74.70;;;;;;10492410;28;20040;-57
2023/09/30 03:14:13;;;;;;;4.28;2.10;;;19.50;74.80;;;;;;10491741;28;20453;-56
2023/09/30 03:19:16;;;;;;;3.42;2.22;;;19.40;74.70;;;;;;10491689;28;20098;-56
2023/09/30 03:24:16;;;;;;;4.20;2.58;;;19.50;75.40;;;;;;10491512;28;20025;-55
2023/09/30 03:29:17;;;;;;;4.55;2.72;;;19.40;74.80;;;;;;10491749;28;20447;-56
2023/09/30 03:34:20;;;;;;;3.78;2.20;;;19.40;74.80;;;;;;10490826;28;20035;-56
2023/09/30 03:39:26;;;;;;;4.13;2.85;;;19.40;74.80;;;;;;10490951;28;20093;-55
2023/09/30 03:44:28;;;;;;;4.88;2.80;;;19.40;74.70;;;;;;10490644;28;20037;-56
2023/09/30 03:49:29;;;;;;;3.33;2.08;;;19.40;74.80;;;;;;10490366;28;20052;-56
2023/09/30 03:54:29;;;;;;;3.05;1.83;;;19.40;74.80;;;;;;10488647;28;20059;-56
2023/09/30 03:59:30;;;;;;;4.43;2.55;;;19.50;74.90;;;;;;10490209;28;20051;-56
2023/09/30 04:04:31;;;;;;;3.88;2.67;;;19.40;74.80;;;;;;10489869;28;20020;-56
2023/09/30 04:09:33;;;;;;;5.05;2.55;;;19.40;74.80;;;;;;10490055;28;20025;-57
2023/09/30 04:14:33;;;;;;;3.53;2.05;;;19.40;74.90;;;;;;10489581;28;20390;-56
2023/09/30 04:19:34;;;;;;;3.05;2.40;;;19.40;74.80;;;;;;10489288;28;20056;-57
2023/09/30 04:24:35;;;;;;;3.67;2.17;;;19.40;74.80;;;;;;10488954;28;20028;-57
2023/09/30 04:29:35;;;;;;;3.78;2.38;;;19.40;74.90;;;;;;10489017;28;20036;-56
2023/09/30 04:34:36;;;;;;;4.18;1.88;;;19.40;74.80;;;;;;10488829;28;20384;-57
2023/09/30 04:39:37;;;;;;;3.45;2.25;;;19.40;74.80;;;;;;10488850;28;20074;-56
2023/09/30 04:44:38;;;;;;;4.25;2.45;;;19.40;74.80;;;;;;10488404;28;20036;-57
2023/09/30 04:49:39;;;;;;;3.80;2.10;;;19.30;74.80;;;;;;10488871;28;20445;-57
2023/09/30 04:54:39;;;;;;;3.28;1.95;;;19.40;74.80;;;;;;10488922;28;20591;-56
2023/09/30 04:59:41;;;;;;;5.18;2.67;;;19.30;74.80;;;;;;10487348;28;20067;-56
2023/09/30 05:04:45;;;;;;;4.00;2.33;;;19.30;74.80;;;;;;10487883;28;20024;-56
2023/09/30 05:09:45;;;;;;;3.88;2.00;;;19.30;74.80;;;;;;10488699;28;20033;-57
2023/09/30 05:14:46;;;;;;;3.80;2.20;;;19.30;74.80;;;;;;10487672;28;20619;-56
2023/09/30 05:19:47;;;;;;;4.43;2.55;;;19.30;74.80;;;;;;10492064;28;20044;-55
2023/09/30 05:24:47;;;;;;;6.63;2.67;;;19.30;74.80;;;;;;10495956;28;20033;-56
2023/09/30 05:29:48;;;;;;;3.38;1.88;;;19.30;75.40;;;;;;10494925;28;20083;-56
2023/09/30 05:34:50;;;;;;;3.53;2.08;;;19.30;74.80;;;;;;10493951;28;20130;-57
2023/09/30 05:39:51;;;;;;;3.30;2.05;;;19.30;74.80;;;;;;10497734;28;20032;-56
2023/09/30 05:44:53;;;;;;;4.05;2.80;;;19.30;74.90;;;;;;10496981;28;20367;-57
2023/09/30 05:49:54;;;;;;;3.72;2.20;;;19.30;74.80;;;;;;10497643;28;20483;-56
2023/09/30 05:54:55;;;;;;;2.70;2.20;;;19.30;74.80;;;;;;10496871;28;20135;-56
2023/09/30 05:59:56;;;;;;;3.65;2.25;;;19.30;74.80;;;;;;10495438;28;20036;-57
2023/09/30 06:04:57;;;;;;;3.75;2.20;;;19.30;74.80;;;;;;10496686;28;20475;-57
2023/09/30 06:09:57;;;;;;;4.82;2.55;;;19.30;74.80;;;;;;10497072;28;20033;-57
2023/09/30 06:14:58;;;;;;;3.72;2.47;;;19.20;74.80;;;;;;10496051;28;20037;-57
2023/09/30 06:20:07;;;;;;;4.10;2.55;;;19.30;74.80;;;;;;10496390;28;20048;-57
2023/09/30 06:25:08;;;;;;;3.47;2.20;;;19.20;74.80;;;;;;10495786;28;20486;-56
2023/09/30 06:30:09;;;;;;;3.22;2.33;;;19.20;74.80;;;;;;10495429;28;20378;-57
2023/09/30 06:35:10;;;;;;;4.00;2.65;;;19.30;74.80;;;;;;10495449;28;20052;-56
2023/09/30 06:40:12;;;;;;;3.95;2.13;;;19.20;74.80;;;;;;10494051;28;20060;-57
2023/09/30 06:45:13;;;;;;;3.78;2.55;;;19.30;74.80;;;;;;10494571;28;20027;-57
2023/09/30 06:50:17;;;;;;;4.15;2.75;;;19.30;74.50;;;;;;10495031;28;20042;-56
2023/09/30 06:55:18;;;;;;;4.15;2.47;;;19.30;74.50;;;;;;10494936;28;20417;-56
2023/09/30 07:00:18;;;;;;;4.72;2.17;;;19.30;74.50;;;;;;10494883;28;20028;-56
2023/09/30 07:05:19;;;;;;;3.42;1.98;;;19.30;74.40;;;;;;10493990;28;20086;-56
2023/09/30 07:10:20;;;;;;;4.68;2.35;;;19.30;74.50;;;;;;10492376;28;20040;-57
2023/09/30 07:15:21;;;;;;;4.63;2.92;;;19.30;74.50;;;;;;10493765;28;20494;-57
2023/09/30 07:20:22;;;;;;;4.60;2.65;;;19.30;74.40;;;;;;10493643;28;20097;-56
2023/09/30 07:25:23;;;;;;;4.03;2.13;;;19.30;74.40;;;;;;10493114;28;20013;-56
2023/09/30 07:30:24;;;;;;;2.75;2.00;;;19.30;74.40;;;;;;10493551;28;20036;-57
2023/09/30 07:35:25;;;;;;;5.30;2.58;;;19.30;74.50;;;;;;10492338;28;20219;-56
2023/09/30 07:40:27;;;;;;;3.05;1.95;;;19.30;74.40;;;;;;10492197;28;20037;-56
2023/09/30 07:45:28;;;;;;;3.42;2.03;;;19.30;74.50;;;;;;10492408;28;20023;-57
2023/09/30 07:50:29;;;;;;;4.35;2.22;;;19.30;74.50;;;;;;10492670;28;20036;-57
2023/09/30 07:55:29;;;;;;;3.53;2.28;;;19.30;74.40;;;;;;10492040;28;20035;-57
2023/09/30 08:00:30;;;;;;;5.03;2.42;;;19.30;74.40;;;;;;10492585;28;20036;-57
2023/09/30 08:05:31;;;;;;;5.15;2.83;;;19.30;74.50;;;;;;10491012;28;20042;-57
2023/09/30 08:10:32;;;;;;;3.90;2.78;;;19.30;74.60;;;;;;10491895;28;20028;-57
2023/09/30 08:15:33;;;;;;;3.80;2.47;;;19.40;74.70;;;;;;10491180;28;20025;-57
2023/09/30 08:20:34;;;;;;;3.72;2.53;;;19.40;74.60;;;;;;10491476;28;20050;-56
2023/09/30 08:25:34;;;;;;;4.45;2.60;;;19.40;74.60;;;;;;10491150;28;20035;-56
2023/09/30 08:30:36;;;;;;;4.28;2.30;;;19.40;74.80;;;;;;10491892;28;20035;-56
2023/09/30 08:35:40;;;;;;;4.13;2.42;;;19.40;74.90;;;;;;10490969;28;20110;-56
2023/09/30 08:40:41;;;;;;;3.45;2.25;;;19.40;74.80;;;;;;10490211;28;20470;-56
2023/09/30 08:45:46;;;;;;;4.45;2.28;;;19.40;74.90;;;;;;10489444;28;20027;-57
2023/09/30 08:50:50;;;;;;;5.60;2.28;;;19.50;74.90;;;;;;10489967;28;20103;-56
2023/09/30 08:55:54;;;;;;;6.15;2.50;;;19.50;74.90;;;;;;10489262;28;20058;-56
2023/09/30 09:00:56;;;;;;;4.95;2.22;;;19.50;74.90;;;;;;10490403;28;20024;-57
2023/09/30 09:05:57;;;;;;;4.50;2.67;;;19.50;74.90;;;;;;10488270;28;20028;-57
2023/09/30 09:11:00;;;;;;;4.03;3.08;;;19.60;75.00;;;;;;10489987;28;20391;-56
2023/09/30 09:16:08;;;;;;;4.47;2.47;;;19.60;75.30;;;;;;10489786;28;20587;-57
2023/09/30 09:21:28;;;;;;;3.47;2.00;;;19.60;74.80;;;;;;10490185;28;20131;-57
2023/09/30 09:26:31;;;;;;;3.33;1.88;;;19.60;74.90;;;;;;10489599;28;20070;-56
2023/09/30 09:31:35;;;;;;;3.38;2.33;;;19.60;74.90;;;;;;10490030;28;20046;-56
2023/09/30 09:36:48;;;;;;;5.55;2.08;;;19.70;75.00;;;;;;10489144;28;20035;-56
2023/09/30 09:41:57;;;;;;;3.63;2.28;;;19.70;74.90;;;;;;10490163;28;20686;-56
2023/09/30 09:46:59;;;;;;;4.07;2.60;;;19.70;74.90;;;;;;10489247;28;20029;-57
2023/09/30 09:52:01;;;;;;;3.67;2.05;;;19.70;75.00;;;;;;10489770;28;20032;-56
2023/09/30 09:57:04;;;;;;;4.07;2.25;;;19.70;75.00;;;;;;10486835;28;20498;-57
2023/09/30 10:02:14;;;;;;;2.88;1.88;;;19.80;75.00;;;;;;10488507;28;20024;-56
2023/09/30 10:07:24;;;;;;;3.78;2.40;;;19.80;74.90;;;;;;10494228;28;20021;-57
2023/09/30 10:12:26;;;;;;;4.97;2.60;;;19.80;75.00;;;;;;10495617;28;20456;-56
2023/09/30 10:18:07;;;;;;;3.47;2.17;;;19.80;74.90;;;;;;10496499;28;20045;-56
2023/09/30 10:23:17;;;;;;;3.85;1.70;;;19.80;74.90;;;;;;10496010;28;20098;-57
2023/09/30 10:28:36;;;;;;;3.55;2.15;;;19.90;75.00;;;;;;10494352;28;20032;-56
2023/09/30 10:34:08;;;;;;;;;;;19.90;75.00;;;;;;10496299;28;20032;-57
2023/09/30 10:39:13;;;;;;;2.70;2.10;;;19.90;75.00;;;;;;10494003;28;19958;-57
2023/09/30 10:44:26;;;;;;;3.38;1.55;;;19.90;75.00;;;;;;10494807;28;20037;-57
2023/09/30 10:49:27;;;;;;;4.50;2.05;;;19.90;75.00;;;;;;10494944;28;20037;-57
2023/09/30 10:54:30;;;;;;;4.03;2.25;;;20.00;75.00;;;;;;10495709;28;20028;-56
2023/09/30 10:59:32;;;;;;;4.35;2.42;;;20.00;75.00;;;;;;10494378;28;20029;-56
2023/09/30 11:04:46;;;;;;;2.75;1.77;;;19.90;75.00;;;;;;10494636;28;20024;-55
2023/09/30 11:09:47;;;;;;;3.60;2.10;;;19.90;75.00;;;;;;10492981;28;20035;-57
2023/09/30 11:14:58;;;;;;;2.97;2.10;;;19.90;75.00;;;;;;10493841;28;20036;-57
2023/09/30 11:19:59;;;;;;;3.58;2.03;;;19.90;75.10;;;;;;10492147;28;20416;-57
2023/09/30 11:25:00;;;;;;;3.15;1.92;;;19.90;75.10;;;;;;10493638;28;20703;-57
2023/09/30 11:30:03;;;;;;;2.22;1.55;;;19.80;75.10;;;;;;10492905;28;20034;-56
2023/09/30 11:35:11;;;;;;;5.15;2.03;;;19.80;75.20;;;;;;10492299;28;20068;-56
2023/09/30 11:40:13;;;;;;;3.50;2.30;;;19.80;75.30;;;;;;10491878;28;20103;-57
2023/09/30 11:45:23;;;;;;;3.60;1.75;;;19.80;75.30;;;;;;10492717;28;20024;-57
2023/09/30 11:50:24;;;;;;;3.15;1.85;;;19.80;75.20;;;;;;10492538;28;20105;-56
2023/09/30 11:55:26;;;;;;;2.80;1.70;;;19.90;75.20;;;;;;10492332;28;20518;-56
2023/09/30 12:00:28;;;;;;;2.53;1.65;;;19.90;75.10;;;;;;10491419;28;20086;-57
2023/09/30 12:05:30;;;;;;;4.85;1.80;;;19.90;75.10;;;;;;10492316;28;20028;-56
2023/09/30 12:10:31;;;;;;;4.50;2.25;;;19.90;75.10;;;;;;10491575;28;20033;-56
2023/09/30 12:15:32;;;;;;;3.28;1.98;;;19.80;75.20;;;;;;10490465;28;20387;-56
2023/09/30 12:20:33;;;;;;;3.53;1.95;;;19.80;75.10;;;;;;10491565;28;20029;-56
2023/09/30 12:25:34;;;;;;;3.35;1.77;;;19.90;75.10;;;;;;10492114;28;20024;-56
2023/09/30 12:30:34;;;;;;;3.53;1.65;;;19.90;75.20;;;;;;10490596;28;20033;-57
2023/09/30 12:35:35;;;;;;;3.80;2.10;;;19.90;75.00;;;;;;10491049;28;20028;-57
2023/09/30 12:40:36;;;;;;;3.30;2.00;;;19.90;75.00;;;;;;10490647;28;20043;-57
2023/09/30 12:45:38;;;;;;;3.60;1.80;;;19.90;75.00;;;;;;10490828;28;20491;-57
2023/09/30 12:50:39;;;;;;;4.22;2.42;;;19.90;75.00;;;;;;10490816;28;20106;-56
2023/09/30 12:55:40;;;;;;;3.47;1.50;;;19.80;74.90;;;;;;10489999;28;20088;-57
2023/09/30 13:00:41;;;;;;;3.65;2.17;;;19.80;75.00;;;;;;10490619;28;20028;-57
2023/09/30 13:05:42;;;;;;;3.25;2.45;;;19.90;75.00;;;;;;10490451;28;20039;-57
2023/09/30 13:10:43;;;;;;;2.97;1.73;;;19.90;75.00;;;;;;10490646;28;20028;-56
2023/09/30 13:15:44;;;;;;;3.35;2.00;;;19.80;75.00;;;;;;10490427;28;20484;-57
2023/09/30 13:20:45;;;;;;;4.22;2.03;;;19.90;75.10;;;;;;10489801;28;20037;-57
2023/09/30 13:25:46;;;;;;;3.13;2.05;;;19.90;75.00;;;;;;10490395;28;20032;-57
2023/09/30 13:30:48;;;;;;;3.58;2.25;;;19.90;75.00;;;;;;10489489;28;20024;-57
2023/09/30 13:35:48;;;;;;;3.28;2.20;;;19.90;75.00;;;;;;10490051;28;20032;-57
2023/09/30 13:40:49;;;;;;;4.05;1.83;;;19.90;75.00;;;;;;10493538;28;20032;-56
2023/09/30 13:45:50;;;;;;;3.22;1.60;;;19.90;75.00;;;;;;10497197;28;20025;-56
2023/09/30 13:50:51;;;;;;;4.20;2.28;;;19.90;74.90;;;;;;10497395;28;20040;-56
2023/09/30 13:55:51;;;;;;;3.75;2.05;;;19.90;74.90;;;;;;10497364;28;20056;-57
2023/09/30 14:00:52;;;;;;;3.65;1.92;;;19.90;74.80;;;;;;10497009;28;20094;-57
2023/09/30 14:05:53;;;;;;;3.08;1.83;;;19.90;74.80;;;;;;10497332;28;20556;-56
2023/09/30 14:10:54;;;;;;;3.15;1.73;;;19.80;74.80;;;;;;10496512;28;20046;-57
2023/09/30 14:15:54;;;;;;;4.50;2.05;;;19.80;74.90;;;;;;10496337;28;20507;-57
2023/09/30 14:20:55;;;;;;;3.70;2.03;;;19.80;74.80;;;;;;10496138;28;20036;-56
2023/09/30 14:25:56;;;;;;;2.70;1.75;;;19.80;74.80;;;;;;10496217;28;20024;-56
2023/09/30 14:30:57;;;;;;;3.83;1.90;;;19.90;74.80;;;;;;10495528;28;20032;-57
2023/09/30 14:35:58;;;;;;;3.30;2.05;;;19.80;74.80;;;;;;10496310;28;20545;-57
2023/09/30 14:40:58;;;;;;;4.78;2.60;;;19.90;74.80;;;;;;10493931;28;20055;-57
2023/09/30 14:46:03;;;;;;;3.47;1.92;;;19.80;74.70;;;;;;10495053;28;20024;-56
2023/09/30 14:51:04;;;;;;;4.10;2.10;;;19.80;75.30;;;;;;10495055;28;20036;-56
2023/09/30 14:56:16;;;;;;;3.25;1.92;;;19.80;74.80;;;;;;10494479;28;20032;-57
2023/09/30 15:01:17;;;;;;;3.20;1.95;;;19.80;74.80;;;;;;10494583;28;20459;-56
2023/09/30 15:06:18;;;;;;;3.38;2.17;;;19.80;74.80;;;;;;10494848;28;20032;-57
2023/09/30 15:11:18;;;;;;;4.55;1.85;;;19.80;74.80;;;;;;10494198;28;20039;-57
2023/09/30 15:16:21;;;;;;;4.95;2.40;;;19.80;74.70;;;;;;10494470;28;20119;-57
2023/09/30 15:21:23;;;;;;;5.22;2.28;;;19.80;74.80;;;;;;10475814;28;20492;-56
2023/09/30 15:26:24;;;;;;;4.22;2.53;;;19.80;74.80;;;;;;10494163;28;20108;-57
2023/09/30 15:31:31;;;;;;;3.22;1.80;;;19.80;74.80;;;;;;10493516;28;20391;-57
2023/09/30 15:36:32;;;;;;;4.97;2.10;;;19.80;74.80;;;;;;10493661;28;20028;-57
2023/09/30 15:41:33;;;;;;;3.28;1.92;;;19.80;74.80;;;;;;10492787;28;20029;-57
2023/09/30 15:46:34;;;;;;;3.25;2.25;;;19.80;74.80;;;;;;10493006;28;20036;-57
2023/09/30 15:51:35;;;;;;;4.68;2.50;;;19.80;74.80;;;;;;10491304;28;20384;-57
2023/09/30 15:56:35;;;;;;;3.97;2.33;;;19.80;74.90;;;;;;10492534;28;20051;-57
2023/09/30 16:01:36;;;;;;;5.22;2.70;;;19.80;74.80;;;;;;10491520;28;20032;-57
2023/09/30 16:06:39;;;;;;;3.67;1.85;;;19.80;74.80;;;;;;10491174;28;20020;-57
2023/09/30 16:11:40;;;;;;;4.03;2.17;;;19.80;74.90;;;;;;10491456;28;20060;-57
2023/09/30 16:16:40;;;;;;;3.47;1.77;;;19.70;74.80;;;;;;10491737;28;20419;-57
2023/09/30 16:21:41;;;;;;;5.15;2.83;;;19.70;74.80;;;;;;10490971;28;20053;-57
2023/09/30 16:26:42;;;;;;;4.30;2.30;;;19.70;74.80;;;;;;10491715;28;20452;-57
2023/09/30 16:31:43;;;;;;;3.58;2.38;;;19.70;74.80;;;;;;10490605;28;20078;-57
2023/09/30 16:36:43;;;;;;;3.80;2.22;;;19.70;74.80;;;;;;10491165;28;20039;-57
2023/09/30 16:41:44;;;;;;;3.42;2.10;;;19.70;74.80;;;;;;10491142;28;20028;-57
2023/09/30 16:46:45;;;;;;;5.32;2.58;;;19.70;74.90;;;;;;10490990;28;20029;-57
2023/09/30 16:51:45;;;;;;;3.58;1.98;;;19.70;74.90;;;;;;10490622;28;20031;-56
2023/09/30 16:56:46;;;;;;;4.25;2.40;;;19.70;74.90;;;;;;10491004;28;20025;-57
2023/09/30 17:01:47;;;;;;;5.18;2.67;;;19.70;74.90;;;;;;10490205;28;20028;-57
2023/09/30 17:06:48;;;;;;;3.25;2.42;;;19.60;74.90;;;;;;10491064;28;20085;-58
2023/09/30 17:11:49;;;;;;;3.60;2.28;;;19.60;74.90;;;;;;10490518;28;20044;-57
2023/09/30 17:16:49;;;;;;;4.15;2.00;;;19.60;74.90;;;;;;10496708;28;20048;-58
2023/09/30 17:21:50;;;;;;;4.43;3.10;;;19.60;74.90;;;;;;10498532;28;20032;-57
2023/09/30 17:26:51;;;;;;;3.28;2.25;;;19.60;75.00;;;;;;10498640;28;20490;-56
2023/09/30 17:31:51;;;;;;;4.63;2.45;;;19.60;75.00;;;;;;10498164;28;20067;-57
2023/09/30 17:36:52;;;;;;;5.18;2.30;;;19.60;75.00;;;;;;10497929;28;20085;-57
2023/09/30 17:41:53;;;;;;;4.25;2.30;;;19.60;75.60;;;;;;10497704;28;20029;-57
2023/09/30 17:46:54;;;;;;;5.05;2.47;;;19.60;75.00;;;;;;10498197;28;20058;-57
2023/09/30 17:51:56;;;;;;;4.60;2.13;;;19.60;75.00;;;;;;10498181;28;20036;-57
2023/09/30 17:56:56;;;;;;;3.85;2.67;;;19.60;75.00;;;;;;10496309;28;20025;-57
2023/09/30 18:01:57;;;;;;;2.83;2.10;;;19.60;74.90;;;;;;10494929;28;20033;-57
2023/09/30 18:06:58;;;;;;;4.85;2.72;;;19.60;74.90;;;;;;10494555;28;20028;-57
2023/09/30 18:11:58;;;;;;;3.10;2.25;;;19.60;74.90;;;;;;10494716;28;20404;-57
2023/09/30 18:16:59;;;;;;;3.63;2.45;;;19.60;75.00;;;;;;10494086;28;20051;-57
2023/09/30 18:22:00;;;;;;;4.60;2.72;;;19.60;75.00;;;;;;10494173;28;20032;-57
2023/09/30 18:27:01;;;;;;;4.60;2.35;;;19.60;75.00;;;;;;10493462;28;20020;-56
2023/09/30 18:32:02;;;;;;;4.07;2.67;;;19.60;75.10;;;;;;10494087;28;20041;-57
2023/09/30 18:37:03;;;;;;;2.92;2.25;;;19.60;75.10;;;;;;10494003;28;20112;-56
2023/09/30 18:42:05;;;;;;;4.03;2.22;;;19.60;75.60;;;;;;10493661;28;20029;-57
2023/09/30 18:47:07;;;;;;;3.63;2.58;;;19.60;75.00;;;;;;10493217;28;20017;-56
2023/09/30 18:52:08;;;;;;;3.67;2.17;;;19.60;75.00;;;;;;10493472;28;20054;-57
2023/09/30 18:57:09;;;;;;;6.30;2.42;;;19.50;75.00;;;;;;10491727;28;20024;-56
2023/09/30 19:02:09;;;;;;;4.93;2.92;;;19.50;75.00;;;;;;10493070;28;20033;-57
2023/09/30 19:07:10;;;;;;;2.90;2.30;;;19.60;75.00;;;;;;10492415;28;20037;-57
2023/09/30 19:12:11;;;;;;;4.65;2.30;;;19.60;75.00;;;;;;10492929;28;20054;-56
2023/09/30 19:17:12;;;;;;;4.47;2.80;;;19.60;74.90;;;;;;10491765;28;20475;-57
2023/09/30 19:22:12;;;;;;;4.15;2.80;;;19.60;74.90;;;;;;10492195;28;20032;-57
2023/09/30 19:27:13;;;;;;;2.55;2.00;;;19.60;74.90;;;;;;10492561;28;20016;-57
2023/09/30 19:32:14;;;;;;;4.35;2.97;;;19.60;74.90;;;;;;10492345;28;20028;-56
2023/09/30 19:37:16;;;;;;;3.95;2.70;;;19.50;74.80;;;;;;10490515;28;20036;-57
2023/09/30 19:42:16;;;;;;;4.40;3.17;;;19.50;74.90;;;;;;10489851;28;20050;-57
2023/09/30 19:47:18;;;;;;;3.40;2.47;;;19.50;74.90;;;;;;10490688;28;20745;-57
2023/09/30 19:52:18;;;;;;;3.47;2.67;;;19.50;74.90;;;;;;10490638;28;20037;-57
2023/09/30 19:57:19;;;;;;;3.45;2.15;;;19.50;74.90;;;;;;10490454;28;20032;-56
2023/09/30 20:02:20;;;;;;;4.45;2.35;;;19.50;74.90;;;;;;10490392;28;20491;-57
2023/09/30 20:07:22;;;;;;;3.70;3.08;;;19.50;74.90;;;;;;10489797;28;20491;-57
2023/09/30 20:12:23;;;;;;;3.50;2.30;;;19.50;74.90;;;;;;10490158;28;20059;-57
2023/09/30 20:17:24;;;;;;;5.47;3.13;;;19.50;74.90;;;;;;10489919;28;20516;-57
2023/09/30 20:22:25;;;;;;;3.20;2.10;;;19.50;74.80;;;;;;10489538;28;20033;-57
2023/09/30 20:27:25;;;;;;;5.10;2.72;;;19.50;74.80;;;;;;10489524;28;20025;-57
2023/09/30 20:32:27;;;;;;;3.35;2.10;;;19.50;74.80;;;;;;10489913;28;20032;-56
2023/09/30 20:37:28;;;;;;;3.92;2.92;;;19.50;74.80;;;;;;10488960;28;20024;-56
2023/09/30 20:42:29;;;;;;;5.68;2.97;;;19.50;74.80;;;;;;10487591;28;20478;-57
2023/09/30 20:47:29;;;;;;;4.15;2.83;;;19.50;74.80;;;;;;10488585;28;20037;-57
2023/09/30 20:52:30;;;;;;;4.05;2.60;;;19.50;74.90;;;;;;10489384;28;20031;-56
2023/09/30 20:57:32;;;;;;;3.50;2.33;;;19.50;74.80;;;;;;10489537;28;20028;-56
2023/09/30 21:02:32;;;;;;;3.90;2.80;;;19.50;74.90;;;;;;10488971;28;20056;-56
2023/09/30 21:07:33;;;;;;;5.78;2.75;;;19.50;74.80;;;;;;10488189;28;20024;-57
2023/09/30 21:12:34;;;;;;;3.28;2.30;;;19.50;74.80;;;;;;10489550;28;20040;-57
2023/09/30 21:17:35;;;;;;;5.25;2.83;;;19.50;74.90;;;;;;10488813;28;20763;-57
2023/09/30 21:22:35;;;;;;;3.67;2.88;;;19.50;74.80;;;;;;10488333;28;20048;-57
2023/09/30 21:27:36;;;;;;;3.88;2.70;;;19.50;74.80;;;;;;10487886;28;20392;-56
2023/09/30 21:32:38;;;;;;;3.30;2.30;;;19.50;74.80;;;;;;10487943;28;20036;-57
2023/09/30 21:37:38;;;;;;;4.07;3.15;;;19.40;74.70;;;;;;10487775;28;20025;-57
2023/09/30 21:42:39;;;;;;;3.25;2.53;;;19.50;74.70;;;;;;10487658;28;20025;-57
2023/09/30 21:47:40;;;;;;;3.47;2.33;;;19.40;74.70;;;;;;10487483;28;20055;-56
2023/09/30 21:52:41;;;;;;;3.85;3.17;;;19.40;74.70;;;;;;10487609;28;20134;-56
2023/09/30 21:57:42;;;;;;;4.47;2.85;;;19.40;74.70;;;;;;10487341;28;20028;-56
2023/09/30 22:02:43;;;;;;;5.03;3.13;;;19.40;74.70;;;;;;10492369;28;20029;-56
2023/09/30 22:07:43;;;;;;;5.57;3.13;;;19.40;74.70;;;;;;10494975;28;20364;-57
2023/09/30 22:12:44;;;;;;;4.55;2.92;;;19.40;74.70;;;;;;10494819;28;20430;-57
2023/09/30 22:17:45;;;;;;;3.63;2.63;;;19.40;74.70;;;;;;10494129;28;20056;-56
2023/09/30 22:22:46;;;;;;;3.67;2.35;;;19.40;74.70;;;;;;10494642;28;20078;-57
2023/09/30 22:27:47;;;;;;;3.97;3.05;;;19.40;74.70;;;;;;10494253;28;20086;-57
2023/09/30 22:32:48;;;;;;;3.55;2.60;;;19.40;74.70;;;;;;10494331;28;20029;-56
2023/09/30 22:37:48;;;;;;;4.57;2.97;;;19.40;74.70;;;;;;10493854;28;20028;-56
2023/09/30 22:42:50;;;;;;;4.03;2.50;;;19.40;74.60;;;;;;10493925;28;20040;-57
2023/09/30 22:47:52;;;;;;;3.75;3.05;;;19.40;74.60;;;;;;10493612;28;20031;-57
2023/09/30 22:52:55;;;;;;;4.00;2.75;;;19.40;74.70;;;;;;10493884;28;20032;-56
2023/09/30 22:57:55;;;;;;;4.15;3.17;;;19.40;74.60;;;;;;10492906;28;20518;-57
2023/09/30 23:02:59;;;;;;;4.20;2.70;;;19.40;74.70;;;;;;10491375;28;20035;-57
2023/09/30 23:08:00;;;;;;;4.50;2.97;;;19.40;74.70;;;;;;10493051;28;20475;-57
2023/09/30 23:13:01;;;;;;;4.10;2.65;;;19.40;74.70;;;;;;10491212;28;20032;-56
2023/09/30 23:18:02;;;;;;;4.43;3.08;;;19.40;74.70;;;;;;10491852;28;20048;-57
2023/09/30 23:23:04;;;;;;;3.58;2.72;;;19.40;74.70;;;;;;10491894;28;20036;-57
2023/09/30 23:28:06;;;;;;;3.72;2.75;;;19.40;74.70;;;;;;10491544;28;20033;-57
2023/09/30 23:33:07;;;;;;;3.60;2.72;;;19.40;74.70;;;;;;10491852;28;20487;-57
2023/09/30 23:38:08;;;;;;;3.55;2.60;;;19.40;74.70;;;;;;10491530;28;20024;-56
2023/09/30 23:43:09;;;;;;;4.53;3.20;;;19.40;74.70;;;;;;10491226;28;20037;-56
2023/09/30 23:48:10;;;;;;;3.38;2.78;;;19.40;74.60;;;;;;10491482;28;20036;-57
2023/09/30 23:53:11;;;;;;;3.65;2.65;;;19.40;74.60;;;;;;10491599;28;20025;-56
2023/09/30 23:58:15;;;;;;;3.88;2.92;;;19.40;74.60;;;;;;10490811;28;20028;-57
